Time;durP1;ratioP1;P1;durP2;ratioP2;P2;SDS_P1;SDS_P2;PMS_P1;PMS_P2;Temp;Humidity;BMP_temperature;BMP_pressure;BME280_temperature;BME280_humidity;BME280_pressure;Samples;Min_cycle;Max_cycle;Signal;HPM_P1;HPM_P2
2022/03/29 12:55:44;;;;;;;;;;;10.80;95.50;;;;;;5066210;27;20387;-53
2022/03/29 12:58:11;;;;;;;51.72;31.20;;;10.70;95.60;;;;;;5053204;28;20008;-47
2022/03/29 13:00:38;;;;;;;57.20;32.50;;;10.70;95.60;;;;;;5052295;28;20385;-49
2022/03/29 13:03:04;;;;;;;50.08;32.22;;;10.80;95.40;;;;;;5049848;28;20477;-53
2022/03/29 13:05:51;;;;;;;49.95;32.53;;;10.80;95.40;;;;;;5049757;28;20492;-48
2022/03/29 13:08:18;;;;;;;50.22;32.67;;;10.90;95.20;;;;;;5049556;28;20083;-54
2022/03/29 13:10:46;;;;;;;53.60;33.72;;;11.00;95.20;;;;;;5050838;28;20107;-48
2022/03/29 13:13:21;;;;;;;53.28;33.90;;;11.10;94.80;;;;;;5049689;28;20049;-46
2022/03/29 13:15:48;;;;;;;56.53;33.00;;;11.20;95.00;;;;;;5049575;28;20128;-50
2022/03/29 13:18:15;;;;;;;57.97;36.13;;;11.30;94.70;;;;;;5049658;28;20480;-48
2022/03/29 13:21:02;;;;;;;59.33;35.83;;;11.30;94.60;;;;;;5049678;28;20072;-47
2022/03/29 13:23:48;;;;;;;56.15;35.17;;;11.40;94.70;;;;;;5049745;28;20041;-52
2022/03/29 13:26:15;;;;;;;58.47;37.00;;;11.40;94.40;;;;;;5049496;28;20048;-50
2022/03/29 13:28:42;;;;;;;55.75;36.22;;;11.40;94.80;;;;;;5049434;28;20124;-48
2022/03/29 13:31:18;;;;;;;60.85;37.03;;;11.50;94.50;;;;;;5049168;28;20468;-52
2022/03/29 13:33:45;;;;;;;56.63;35.70;;;11.50;94.40;;;;;;5049394;28;20041;-54
2022/03/29 13:36:12;;;;;;;56.55;38.00;;;11.60;94.50;;;;;;5049038;28;20041;-50
2022/03/29 13:38:39;;;;;;;62.05;39.22;;;11.50;94.30;;;;;;5048916;28;20033;-50
2022/03/29 13:41:05;;;;;;;61.85;38.58;;;11.60;94.20;;;;;;5055778;28;20041;-51
2022/03/29 13:43:33;;;;;;;58.33;38.15;;;11.80;94.20;;;;;;5049546;28;20051;-50
2022/03/29 13:46:00;;;;;;;61.13;39.58;;;11.70;93.80;;;;;;5049473;28;20373;-48
2022/03/29 13:48:29;;;;;;;61.50;39.08;;;11.70;93.80;;;;;;5049503;28;20037;-50
2022/03/29 13:50:56;;;;;;;69.10;39.92;;;11.80;93.80;;;;;;5048043;28;20112;-52
2022/03/29 13:53:23;;;;;;;62.40;39.25;;;11.70;93.70;;;;;;5049116;28;20091;-54
2022/03/29 13:55:49;;;;;;;62.95;41.72;;;11.60;94.10;;;;;;5049456;28;20538;-49
2022/03/29 13:58:16;;;;;;;61.92;39.80;;;11.60;93.90;;;;;;5048762;28;20052;-51
2022/03/29 14:00:43;;;;;;;61.95;39.40;;;11.60;94.00;;;;;;5047813;28;20124;-51
2022/03/29 14:03:10;;;;;;;59.75;40.00;;;11.70;93.90;;;;;;5049278;28;20045;-53
2022/03/29 14:05:38;;;;;;;64.30;41.15;;;11.80;93.50;;;;;;5043959;28;20045;-49
2022/03/29 14:08:06;;;;;;;57.88;38.17;;;11.80;93.30;;;;;;5035790;28;20052;-54
2022/03/29 14:10:33;;;;;;;57.25;39.58;;;11.70;93.70;;;;;;5035616;28;20045;-54
2022/03/29 14:13:01;;;;;;;57.65;37.63;;;11.90;93.60;;;;;;5038898;28;20049;-52
2022/03/29 14:15:29;;;;;;;57.28;38.60;;;12.10;93.20;;;;;;5035466;28;20042;-47
2022/03/29 14:17:56;;;;;;;58.42;37.78;;;12.20;92.90;;;;;;5032827;28;20503;-49
2022/03/29 14:20:22;;;;;;;54.08;37.60;;;12.30;92.60;;;;;;5034581;28;20065;-52
2022/03/29 14:22:49;;;;;;;54.40;37.30;;;12.30;92.70;;;;;;5035489;28;20499;-52
2022/03/29 14:25:16;;;;;;;58.83;37.40;;;12.40;92.40;;;;;;5041659;28;20045;-51
2022/03/29 14:27:43;;;;;;;55.08;37.78;;;12.30;92.10;;;;;;5036376;28;20045;-51
2022/03/29 14:30:09;;;;;;;54.38;38.00;;;12.20;92.30;;;;;;5038342;28;20072;-51
2022/03/29 14:32:36;;;;;;;52.10;37.25;;;12.10;92.50;;;;;;5035372;28;20128;-46
2022/03/29 14:35:06;;;;;;;61.05;37.75;;;12.20;92.50;;;;;;5039203;28;20109;-49
2022/03/29 14:37:33;;;;;;;55.92;37.35;;;12.10;92.30;;;;;;5033898;28;20358;-50
2022/03/29 14:40:00;;;;;;;59.10;37.58;;;12.10;92.30;;;;;;5034961;28;20045;-44
2022/03/29 14:42:26;;;;;;;55.80;37.42;;;12.10;92.50;;;;;;5035225;28;20046;-48
2022/03/29 14:44:54;;;;;;;57.00;38.53;;;12.10;92.60;;;;;;5038556;28;20080;-48
2022/03/29 14:47:21;;;;;;;56.90;38.45;;;12.20;92.00;;;;;;5035076;28;20401;-48
2022/03/29 14:49:48;;;;;;;59.88;37.20;;;12.30;92.20;;;;;;5034701;28;20085;-52
2022/03/29 14:52:17;;;;;;;54.13;37.85;;;12.30;92.10;;;;;;5035997;28;20088;-52
2022/03/29 14:54:44;;;;;;;56.63;37.42;;;12.50;92.00;;;;;;5034540;28;20504;-47
2022/03/29 14:57:11;;;;;;;55.25;37.17;;;12.60;91.90;;;;;;5037736;28;20045;-50
2022/03/29 14:59:38;;;;;;;56.75;35.85;;;12.60;91.40;;;;;;5034930;28;20135;-51
2022/03/29 15:02:05;;;;;;;54.47;36.55;;;12.50;91.50;;;;;;5035584;28;20061;-47
2022/03/29 15:04:33;;;;;;;59.35;36.45;;;12.60;91.50;;;;;;5034538;28;20079;-48
2022/03/29 15:07:06;;;;;;;55.00;36.28;;;12.50;91.40;;;;;;5033893;28;20044;-48
2022/03/29 15:09:33;;;;;;;56.92;36.85;;;12.50;91.50;;;;;;5034641;28;20115;-43
2022/03/29 15:12:00;;;;;;;62.83;38.53;;;12.50;92.10;;;;;;5036213;28;20140;-45
2022/03/29 15:14:27;;;;;;;61.95;38.95;;;12.60;91.40;;;;;;5037732;28;20045;-51
2022/03/29 15:16:54;;;;;;;64.05;40.30;;;12.60;91.00;;;;;;5032632;28;20045;-44
2022/03/29 15:19:21;;;;;;;62.05;39.42;;;12.50;91.50;;;;;;5036194;28;20041;-51
2022/03/29 15:21:47;;;;;;;60.85;39.17;;;12.40;91.50;;;;;;5034542;28;20041;-48
2022/03/29 15:24:16;;;;;;;63.42;39.10;;;12.40;91.40;;;;;;5035413;28;20056;-48
2022/03/29 15:26:43;;;;;;;64.10;39.83;;;12.40;91.30;;;;;;5034177;28;20049;-47
2022/03/29 15:29:12;;;;;;;65.32;41.00;;;12.40;91.60;;;;;;5035613;28;20045;-45
2022/03/29 15:31:39;;;;;;;63.80;39.83;;;12.30;91.60;;;;;;5034329;28;20128;-53
2022/03/29 15:34:06;;;;;;;62.92;38.92;;;12.30;91.80;;;;;;5035648;28;20037;-54
2022/03/29 15:36:35;;;;;;;62.08;38.95;;;12.30;91.70;;;;;;5034117;28;20056;-47
2022/03/29 15:39:01;;;;;;;63.92;37.45;;;12.30;91.70;;;;;;5034122;28;20076;-46
2022/03/29 15:41:28;;;;;;;61.97;39.50;;;12.20;91.60;;;;;;5033294;28;20515;-47
2022/03/29 15:43:55;;;;;;;59.08;37.90;;;12.20;91.80;;;;;;5033965;28;20120;-47
2022/03/29 15:46:23;;;;;;;58.78;38.53;;;12.20;91.50;;;;;;5033764;28;20061;-49
2022/03/29 15:48:49;;;;;;;58.53;37.33;;;12.20;91.40;;;;;;5033851;28;20120;-43
2022/03/29 15:51:22;;;;;;;57.53;36.63;;;12.20;91.50;;;;;;5033808;28;20440;-50
2022/03/29 15:53:48;;;;;;;56.80;37.75;;;12.20;91.60;;;;;;5037878;28;20046;-50
2022/03/29 15:56:15;;;;;;;56.55;37.88;;;12.20;91.50;;;;;;5033793;28;20061;-48
2022/03/29 15:58:42;;;;;;;57.92;38.20;;;12.20;91.70;;;;;;5039809;28;20045;-50
2022/03/29 16:01:15;;;;;;;61.38;38.95;;;12.10;91.60;;;;;;5033564;28;20049;-55
2022/03/29 16:03:43;;;;;;;59.08;37.80;;;12.00;91.90;;;;;;5035371;28;20075;-45
2022/03/29 16:06:10;;;;;;;64.20;39.35;;;12.10;91.90;;;;;;5032531;28;20049;-48
2022/03/29 16:08:38;;;;;;;61.75;39.28;;;11.90;91.70;;;;;;5034481;28;20048;-47
2022/03/29 16:11:04;;;;;;;62.28;38.38;;;11.90;91.90;;;;;;5033446;28;20472;-50
2022/03/29 16:13:31;;;;;;;62.17;38.45;;;11.90;92.10;;;;;;5033906;28;20092;-50
2022/03/29 16:15:58;;;;;;;60.65;37.88;;;11.90;92.30;;;;;;5037462;28;20214;-45
2022/03/29 16:18:25;;;;;;;60.63;37.35;;;12.00;92.00;;;;;;5033430;28;20484;-50
2022/03/29 16:20:53;;;;;;;56.35;37.97;;;12.00;92.00;;;;;;5031661;28;20037;-49
2022/03/29 16:23:19;;;;;;;57.90;36.42;;;12.00;92.00;;;;;;5033510;28;20060;-50
2022/03/29 16:25:46;;;;;;;62.58;37.55;;;11.90;92.00;;;;;;5036171;28;20049;-49
2022/03/29 16:28:13;;;;;;;59.97;37.55;;;11.80;92.10;;;;;;5032987;28;20124;-52
2022/03/29 16:30:40;;;;;;;58.20;37.95;;;11.80;92.10;;;;;;5032541;28;20484;-47
2022/03/29 16:33:07;;;;;;;58.72;37.05;;;11.80;92.10;;;;;;5033226;28;20052;-48
2022/03/29 16:35:33;;;;;;;66.20;38.90;;;11.80;92.30;;;;;;5034808;28;20044;-50
2022/03/29 16:38:00;;;;;;;61.42;37.95;;;11.80;92.40;;;;;;5033014;28;20034;-48
2022/03/29 16:40:27;;;;;;;67.00;38.30;;;11.80;92.20;;;;;;5032908;28;20461;-51
2022/03/29 16:42:54;;;;;;;58.13;38.20;;;11.80;92.20;;;;;;5036667;28;20065;-47
2022/03/29 16:45:21;;;;;;;58.03;37.08;;;11.70;92.50;;;;;;5033157;28;20541;-49
2022/03/29 16:47:48;;;;;;;64.47;39.08;;;11.60;92.50;;;;;;5037891;28;20041;-47
2022/03/29 16:50:14;;;;;;;64.22;39.42;;;11.60;92.70;;;;;;5031702;28;20037;-48
2022/03/29 16:52:41;;;;;;;57.05;37.15;;;11.60;92.70;;;;;;5033128;28;20076;-51
2022/03/29 16:55:08;;;;;;;62.85;37.83;;;11.50;92.80;;;;;;5033835;28;20225;-51
2022/03/29 16:57:35;;;;;;;62.38;37.45;;;11.50;93.00;;;;;;5026774;28;20042;-49
2022/03/29 17:00:02;;;;;;;59.95;37.38;;;11.40;93.10;;;;;;5027233;28;20472;-48
2022/03/29 17:02:29;;;;;;;62.20;37.45;;;11.40;93.20;;;;;;5026551;28;20038;-50
2022/03/29 17:04:58;;;;;;;60.72;37.40;;;11.30;93.30;;;;;;5036262;28;20051;-49
2022/03/29 17:07:25;;;;;;;54.45;35.15;;;11.30;93.20;;;;;;5026265;28;20053;-50
2022/03/29 17:09:53;;;;;;;53.80;34.35;;;11.30;93.20;;;;;;5037289;28;20387;-48
2022/03/29 17:12:20;;;;;;;58.10;34.95;;;11.30;93.10;;;;;;5032825;28;20124;-48
2022/03/29 17:14:46;;;;;;;52.20;34.65;;;11.20;93.10;;;;;;5035628;28;20384;-51
2022/03/29 17:17:14;;;;;;;54.55;34.38;;;11.20;93.30;;;;;;5032975;28;20080;-51
2022/03/29 17:19:40;;;;;;;52.45;34.47;;;11.20;93.40;;;;;;5032345;28;20045;-52
2022/03/29 17:22:07;;;;;;;53.13;33.25;;;11.10;93.40;;;;;;5033317;28;20488;-48
2022/03/29 17:24:34;;;;;;;52.40;34.42;;;11.10;93.50;;;;;;5032476;28;20103;-46
2022/03/29 17:27:01;;;;;;;56.42;34.53;;;11.00;93.60;;;;;;5038178;28;20041;-50
2022/03/29 17:29:28;;;;;;;52.97;35.05;;;11.00;93.60;;;;;;5032545;28;20038;-50
2022/03/29 17:31:54;;;;;;;55.10;34.33;;;11.00;93.70;;;;;;5036670;28;20552;-46
2022/03/29 17:34:22;;;;;;;55.88;34.08;;;10.90;93.90;;;;;;5032480;28;20108;-51
2022/03/29 17:36:48;;;;;;;52.83;33.20;;;10.90;93.80;;;;;;5034851;28;20030;-49
2022/03/29 17:39:16;;;;;;;52.05;33.75;;;10.90;93.80;;;;;;5032518;28;20464;-51
2022/03/29 17:41:43;;;;;;;47.00;32.33;;;10.90;94.00;;;;;;5036133;28;20480;-46
2022/03/29 17:44:10;;;;;;;55.55;34.28;;;10.90;93.90;;;;;;5036493;28;20439;-50
2022/03/29 17:46:37;;;;;;;48.25;32.83;;;10.80;93.90;;;;;;5035779;28;20049;-50
2022/03/29 17:49:04;;;;;;;51.17;33.92;;;10.80;94.00;;;;;;5036233;28;20121;-47
2022/03/29 17:51:31;;;;;;;51.78;33.63;;;10.80;94.00;;;;;;5036997;28;20117;-53
2022/03/29 17:53:57;;;;;;;52.20;34.90;;;10.70;94.10;;;;;;5035686;28;20049;-51
2022/03/29 17:56:24;;;;;;;50.22;32.88;;;10.60;94.20;;;;;;5034913;28;20041;-49
2022/03/29 17:58:51;;;;;;;49.00;33.10;;;10.60;94.40;;;;;;5038088;28;20132;-50
2022/03/29 18:01:18;;;;;;;49.80;33.63;;;10.50;94.40;;;;;;5035895;28;20048;-48
2022/03/29 18:03:45;;;;;;;48.38;31.70;;;10.50;94.60;;;;;;5037821;28;20507;-50
2022/03/29 18:06:12;;;;;;;46.10;33.13;;;10.50;94.60;;;;;;5035613;28;20060;-50
2022/03/29 18:08:42;;;;;;;46.80;33.15;;;10.40;94.80;;;;;;5041251;28;20505;-49
2022/03/29 18:11:09;;;;;;;45.97;32.75;;;10.30;95.00;;;;;;5035672;28;20191;-46
2022/03/29 18:13:36;;;;;;;47.00;33.30;;;10.30;95.00;;;;;;5035929;28;20459;-51
2022/03/29 18:16:04;;;;;;;45.97;32.25;;;10.40;94.90;;;;;;5038475;28;20048;-45
2022/03/29 18:18:30;;;;;;;44.50;32.25;;;10.40;95.00;;;;;;5032712;28;20473;-54
2022/03/29 18:20:57;;;;;;;47.17;33.85;;;10.30;94.90;;;;;;5034969;28;20041;-47
2022/03/29 18:23:24;;;;;;;48.53;32.65;;;10.20;95.10;;;;;;5035679;28;20072;-45
2022/03/29 18:25:51;;;;;;;46.03;31.77;;;10.20;95.20;;;;;;5035194;28;20037;-52
2022/03/29 18:28:17;;;;;;;53.28;33.97;;;10.20;95.10;;;;;;5033567;28;20125;-53
2022/03/29 18:30:44;;;;;;;45.35;32.72;;;10.30;95.20;;;;;;5034453;28;20038;-44
2022/03/29 18:33:16;;;;;;;46.88;32.20;;;10.30;95.00;;;;;;5035295;28;20049;-52
2022/03/29 18:35:43;;;;;;;42.95;30.63;;;10.20;95.10;;;;;;5040702;28;20041;-51
2022/03/29 18:38:12;;;;;;;41.80;31.00;;;10.20;95.10;;;;;;5035387;28;20103;-48
2022/03/29 18:40:38;;;;;;;44.83;30.70;;;10.20;95.10;;;;;;5035103;28;20041;-47
2022/03/29 18:43:05;;;;;;;41.63;30.65;;;10.20;95.10;;;;;;5035296;28;20100;-51
2022/03/29 18:45:33;;;;;;;44.03;30.75;;;10.20;95.00;;;;;;5035259;28;20496;-47
2022/03/29 18:48:04;;;;;;;44.97;31.08;;;10.10;95.00;;;;;;5035099;28;20053;-51
2022/03/29 18:50:31;;;;;;;39.63;29.45;;;10.10;95.20;;;;;;5035011;28;20116;-49
2022/03/29 18:52:59;;;;;;;43.75;30.13;;;10.10;95.20;;;;;;5034999;28;20072;-46
2022/03/29 18:55:26;;;;;;;45.55;29.95;;;10.10;95.20;;;;;;5038661;28;20056;-50
2022/03/29 18:57:53;;;;;;;43.40;29.70;;;10.10;95.60;;;;;;5035145;28;20037;-53
2022/03/29 19:00:22;;;;;;;41.50;28.70;;;10.10;95.30;;;;;;5035865;28;20039;-46
2022/03/29 19:02:49;;;;;;;41.30;30.60;;;10.10;95.20;;;;;;5033669;28;20049;-50
2022/03/29 19:05:15;;;;;;;42.92;27.88;;;10.00;95.30;;;;;;5034876;28;20199;-49
2022/03/29 19:07:43;;;;;;;41.70;29.02;;;10.00;95.50;;;;;;5039007;28;20084;-50
2022/03/29 19:10:13;;;;;;;44.17;31.10;;;10.00;95.50;;;;;;5034702;28;20048;-48
2022/03/29 19:12:40;;;;;;;38.67;29.38;;;10.00;95.50;;;;;;5034917;28;20053;-55
2022/03/29 19:15:07;;;;;;;39.78;28.98;;;10.00;95.40;;;;;;5038573;28;20124;-50
2022/03/29 19:17:34;;;;;;;38.90;28.50;;;9.90;95.40;;;;;;5034617;28;20064;-46
2022/03/29 19:20:01;;;;;;;37.55;28.42;;;9.90;95.50;;;;;;5034369;28;20049;-46
2022/03/29 19:22:27;;;;;;;42.03;27.95;;;9.90;95.50;;;;;;5034440;28;20511;-48
2022/03/29 19:24:54;;;;;;;43.28;29.05;;;9.80;95.50;;;;;;5034433;28;20477;-48
2022/03/29 19:27:21;;;;;;;42.05;29.15;;;9.80;95.60;;;;;;5036407;28;20041;-51
2022/03/29 19:29:49;;;;;;;42.33;29.00;;;9.80;95.50;;;;;;5033235;28;20065;-47
2022/03/29 19:32:18;;;;;;;37.35;27.63;;;9.80;95.70;;;;;;5035486;28;20491;-49
2022/03/29 19:34:44;;;;;;;42.40;28.92;;;9.80;95.60;;;;;;5034008;28;20069;-46
2022/03/29 19:37:13;;;;;;;39.53;28.65;;;9.80;95.50;;;;;;5034220;28;20113;-47
2022/03/29 19:39:40;;;;;;;37.22;27.23;;;9.70;95.60;;;;;;5034359;28;20111;-47
2022/03/29 19:42:09;;;;;;;41.70;28.10;;;9.80;95.40;;;;;;5037395;28;20047;-45
2022/03/29 19:44:40;;;;;;;39.90;29.98;;;9.70;95.40;;;;;;5034146;28;20092;-47
2022/03/29 19:47:08;;;;;;;41.65;30.35;;;9.70;95.40;;;;;;5034451;28;20042;-43
2022/03/29 19:49:45;;;;;;;40.78;30.05;;;9.60;95.40;;;;;;5030973;28;20064;-48
2022/03/29 19:52:11;;;;;;;42.10;30.65;;;9.70;95.40;;;;;;5034318;28;20038;-46
2022/03/29 19:54:39;;;;;;;45.30;30.33;;;9.70;95.50;;;;;;5033813;28;20104;-51
2022/03/29 19:57:06;;;;;;;42.40;30.25;;;9.60;95.40;;;;;;5037540;28;20092;-47
2022/03/29 19:59:33;;;;;;;43.25;30.33;;;9.60;95.30;;;;;;5033802;28;20098;-49
2022/03/29 20:01:59;;;;;;;39.90;30.42;;;9.60;95.30;;;;;;5030641;28;20072;-45
2022/03/29 20:04:28;;;;;;;41.47;29.73;;;9.60;95.30;;;;;;5035984;28;20040;-48
2022/03/29 20:06:55;;;;;;;40.85;29.13;;;9.60;95.60;;;;;;5033733;28;20413;-43
2022/03/29 20:09:22;;;;;;;44.75;30.63;;;9.60;95.60;;;;;;5033206;28;20071;-45
2022/03/29 20:11:49;;;;;;;41.53;29.63;;;9.50;95.70;;;;;;5038466;28;20456;-47
2022/03/29 20:14:16;;;;;;;41.55;29.60;;;9.60;95.70;;;;;;5033570;28;20065;-44
2022/03/29 20:16:43;;;;;;;39.72;29.27;;;9.50;95.80;;;;;;5036395;28;20038;-49
2022/03/29 20:19:14;;;;;;;39.30;29.30;;;9.50;95.90;;;;;;5032302;28;20045;-49
2022/03/29 20:21:41;;;;;;;39.25;28.70;;;9.50;96.00;;;;;;5034819;28;20041;-46
2022/03/29 20:24:08;;;;;;;38.60;29.83;;;9.50;96.00;;;;;;5033293;28;20042;-45
2022/03/29 20:26:39;;;;;;;37.40;28.50;;;9.40;96.00;;;;;;5032504;28;20045;-46
2022/03/29 20:29:06;;;;;;;41.60;31.35;;;9.40;96.10;;;;;;5033369;28;20050;-45
2022/03/29 20:31:35;;;;;;;41.90;28.83;;;9.40;96.10;;;;;;5031817;28;20111;-49
2022/03/29 20:34:02;;;;;;;42.28;30.33;;;9.40;96.20;;;;;;5035114;28;20041;-49
2022/03/29 20:36:29;;;;;;;43.05;31.00;;;9.30;96.40;;;;;;5033085;28;20404;-48
2022/03/29 20:38:56;;;;;;;42.38;31.67;;;9.30;96.50;;;;;;5039171;28;20047;-49
2022/03/29 20:41:22;;;;;;;43.92;32.38;;;9.30;96.50;;;;;;5032981;28;20162;-51
2022/03/29 20:43:49;;;;;;;41.70;32.45;;;9.20;96.50;;;;;;5034191;28;20033;-47
2022/03/29 20:46:16;;;;;;;39.80;30.83;;;9.20;96.60;;;;;;5033054;28;20045;-50
2022/03/29 20:48:43;;;;;;;42.65;31.08;;;9.30;96.50;;;;;;5033779;28;20470;-46
2022/03/29 20:51:10;;;;;;;42.60;33.25;;;9.30;96.50;;;;;;5031694;28;20416;-46
2022/03/29 20:53:37;;;;;;;45.83;32.05;;;9.20;96.40;;;;;;5037990;28;20041;-45
2022/03/29 20:56:04;;;;;;;42.83;32.08;;;9.30;96.50;;;;;;5032851;28;20045;-52
2022/03/29 20:58:31;;;;;;;48.03;32.10;;;9.20;96.50;;;;;;5036480;28;20045;-51
2022/03/29 21:00:57;;;;;;;44.38;32.90;;;9.20;96.50;;;;;;5032653;28;20045;-48
2022/03/29 21:03:24;;;;;;;45.03;32.83;;;9.20;96.60;;;;;;5035045;28;20065;-46
2022/03/29 21:05:51;;;;;;;47.63;33.58;;;9.20;96.60;;;;;;5032915;28;20064;-47
2022/03/29 21:08:18;;;;;;;43.97;32.83;;;9.20;96.50;;;;;;5032496;28;20056;-48
2022/03/29 21:10:47;;;;;;;45.33;33.42;;;9.20;96.50;;;;;;5026937;28;20103;-52
2022/03/29 21:13:14;;;;;;;45.00;33.13;;;9.20;96.40;;;;;;5032558;28;20046;-48
2022/03/29 21:15:40;;;;;;;46.53;34.67;;;9.10;96.40;;;;;;5038078;28;20373;-46
2022/03/29 21:18:07;;;;;;;47.38;34.75;;;9.10;96.40;;;;;;5036714;28;20087;-52
2022/03/29 21:20:34;;;;;;;49.17;34.30;;;9.00;96.40;;;;;;5036456;28;20046;-46
2022/03/29 21:23:01;;;;;;;47.20;34.42;;;9.00;96.40;;;;;;5039834;28;20052;-48
2022/03/29 21:25:46;;;;;;;51.80;35.13;;;8.90;96.60;;;;;;5032526;28;20061;-49
2022/03/29 21:28:13;;;;;;;48.28;35.95;;;9.00;96.60;;;;;;5037815;28;20076;-52
2022/03/29 21:30:40;;;;;;;50.25;36.08;;;9.00;96.60;;;;;;5040401;28;20384;-50
2022/03/29 21:33:06;;;;;;;48.63;36.20;;;9.00;96.60;;;;;;5036891;28;20044;-53
2022/03/29 21:35:37;;;;;;;51.90;37.40;;;8.90;96.70;;;;;;5040686;28;20139;-48
2022/03/29 21:38:04;;;;;;;47.03;36.25;;;8.90;96.70;;;;;;5036319;28;20092;-49
2022/03/29 21:40:31;;;;;;;49.65;35.75;;;8.90;96.70;;;;;;5037031;28;20041;-44
2022/03/29 21:42:57;;;;;;;48.72;35.90;;;8.80;96.70;;;;;;5036052;28;20045;-51
2022/03/29 21:45:24;;;;;;;47.65;34.63;;;8.80;96.80;;;;;;5035782;28;20039;-50
2022/03/29 21:47:51;;;;;;;49.17;35.50;;;8.70;96.80;;;;;;5036524;28;20120;-48
2022/03/29 21:50:19;;;;;;;52.42;36.20;;;8.70;96.90;;;;;;5036328;28;20373;-51
2022/03/29 21:53:04;;;;;;;46.45;36.17;;;8.70;97.00;;;;;;5039724;28;20428;-45
2022/03/29 21:55:52;;;;;;;51.83;35.55;;;8.70;97.10;;;;;;5032823;28;20628;-53
2022/03/29 21:58:37;;;;;;;46.10;34.70;;;8.70;97.10;;;;;;5032081;28;20052;-52
2022/03/29 22:01:23;;;;;;;51.58;32.40;;;8.70;97.20;;;;;;5035738;28;20421;-50
2022/03/29 22:04:09;;;;;;;50.60;35.42;;;8.70;97.10;;;;;;5033406;28;20104;-51
2022/03/29 22:06:54;;;;;;;46.25;34.08;;;8.60;97.30;;;;;;5032041;28;20111;-51
2022/03/29 22:09:20;;;;;;;44.67;34.40;;;8.70;97.20;;;;;;5037595;28;20477;-52
2022/03/29 22:11:47;;;;;;;48.45;34.92;;;8.70;97.30;;;;;;5035222;28;20073;-41
2022/03/29 22:14:14;;;;;;;47.30;33.53;;;8.70;97.20;;;;;;5035791;28;20052;-49
2022/03/29 22:16:55;;;;;;;49.28;35.38;;;8.70;97.10;;;;;;5035446;28;20069;-52
2022/03/29 22:19:22;;;;;;;46.83;35.60;;;8.70;97.20;;;;;;5034007;28;20501;-47
2022/03/29 22:21:49;;;;;;;50.83;35.80;;;8.70;97.20;;;;;;5033860;28;20084;-50
2022/03/29 22:24:16;;;;;;;50.20;35.83;;;8.70;97.10;;;;;;5030344;28;20860;-46
2022/03/29 22:26:43;;;;;;;50.63;37.22;;;8.70;97.00;;;;;;5033918;28;20120;-47
2022/03/29 22:29:09;;;;;;;54.70;37.40;;;8.70;97.00;;;;;;5034254;28;20038;-54
2022/03/29 22:31:36;;;;;;;51.05;37.22;;;8.70;97.10;;;;;;5031797;28;20041;-51
2022/03/29 22:34:04;;;;;;;53.40;37.88;;;8.70;97.10;;;;;;5028931;28;20049;-49
2022/03/29 22:36:30;;;;;;;56.35;38.20;;;8.70;97.00;;;;;;5035010;28;20044;-52
2022/03/29 22:38:57;;;;;;;54.22;37.10;;;8.70;97.00;;;;;;5035055;28;20216;-52
2022/03/29 22:41:24;;;;;;;52.47;37.70;;;8.80;97.10;;;;;;5034497;28;20069;-49
2022/03/29 22:43:54;;;;;;;53.00;37.85;;;8.80;97.00;;;;;;5035035;28;20103;-49
2022/03/29 22:46:21;;;;;;;54.15;37.08;;;8.70;97.00;;;;;;5035163;28;20042;-47
2022/03/29 22:48:48;;;;;;;53.17;36.53;;;8.70;97.00;;;;;;5034922;28;20045;-48
2022/03/29 22:51:16;;;;;;;53.33;36.65;;;8.70;97.10;;;;;;5034604;28;20045;-49
2022/03/29 22:53:43;;;;;;;51.03;36.83;;;8.70;97.10;;;;;;5040194;28;20079;-49
2022/03/29 22:58:55;;;;;;;52.75;36.92;;;8.60;97.30;;;;;;5034596;28;20041;-50
2022/03/29 23:01:21;;;;;;;52.28;37.47;;;8.60;97.40;;;;;;5034292;28;20255;-50
2022/03/29 23:03:48;;;;;;;54.00;38.35;;;8.60;97.30;;;;;;5034381;28;20591;-46
2022/03/29 23:06:15;;;;;;;56.08;37.13;;;8.60;97.30;;;;;;5034201;28;20038;-47
2022/03/29 23:08:42;;;;;;;55.83;36.58;;;8.60;97.50;;;;;;5034290;28;20088;-49
2022/03/29 23:11:09;;;;;;;56.17;38.63;;;8.60;97.40;;;;;;5034000;28;20048;-52
2022/03/29 23:13:36;;;;;;;56.88;38.85;;;8.60;97.40;;;;;;5034302;28;20041;-53
2022/03/29 23:16:03;;;;;;;54.67;36.78;;;8.60;97.40;;;;;;5034195;28;20080;-53
2022/03/29 23:18:29;;;;;;;58.78;38.47;;;8.70;97.40;;;;;;5034083;28;20408;-44
2022/03/29 23:20:56;;;;;;;52.53;38.38;;;8.70;97.40;;;;;;5034418;28;20042;-44
2022/03/29 23:23:23;;;;;;;55.67;39.20;;;8.70;97.40;;;;;;5030036;28;20041;-48
2022/03/29 23:25:50;;;;;;;53.65;38.50;;;8.70;97.30;;;;;;5034186;28;20033;-48
2022/03/29 23:28:18;;;;;;;58.70;39.38;;;8.70;97.30;;;;;;5031146;28;20503;-45
2022/03/29 23:30:45;;;;;;;55.28;37.85;;;8.70;97.30;;;;;;5035916;28;20461;-53
2022/03/29 23:33:12;;;;;;;52.78;37.53;;;8.70;97.40;;;;;;5033948;28;20424;-51
2022/03/29 23:35:39;;;;;;;55.72;37.83;;;8.70;97.50;;;;;;5033913;28;20048;-46
2022/03/29 23:38:06;;;;;;;54.83;38.70;;;8.70;97.40;;;;;;5033149;28;20045;-46
2022/03/29 23:40:32;;;;;;;55.90;37.53;;;8.80;97.30;;;;;;5033805;28;20481;-50
2022/03/29 23:42:59;;;;;;;54.55;38.63;;;8.70;97.30;;;;;;5033427;28;20045;-45
2022/03/29 23:45:26;;;;;;;57.35;38.78;;;8.60;97.40;;;;;;5033644;28;20112;-54
2022/03/29 23:47:53;;;;;;;57.60;41.38;;;8.60;97.60;;;;;;5033670;28;20128;-46
2022/03/29 23:50:20;;;;;;;59.40;40.80;;;8.50;97.70;;;;;;5033803;28;20120;-48
2022/03/29 23:52:46;;;;;;;59.33;39.58;;;8.50;97.70;;;;;;5033789;28;20114;-52
2022/03/29 23:55:13;;;;;;;64.57;40.78;;;8.60;97.80;;;;;;5033553;28;20144;-51
2022/03/29 23:57:40;;;;;;;57.13;40.13;;;8.60;97.60;;;;;;5033632;28;20045;-52
